Time,TemperatureF,DewpointF,PressureIn,WindDirection,WindDirectionDegrees,WindSpeedMPH,WindSpeedGustMPH,Humidity,HourlyPrecipIn,Conditions,Clouds,dailyrainin,SoftwareType,DateUTC
2013-08-24 00:12:00,57.0,53.0,30.02,West,276,0.0,0.0,88,0.00,,,0.01,,2013-08-24 07:12:00,
2013-08-24 00:22:00,57.0,53.0,30.02,West,276,0.0,0.0,88,0.00,,,0.01,,2013-08-24 07:22:00,
2013-08-24 00:43:00,56.0,53.0,30.02,West,276,0.0,0.0,89,0.00,,,0.01,,2013-08-24 07:43:00,
2013-08-24 00:53:00,55.0,52.0,30.02,West,276,0.0,0.0,89,0.00,,,0.01,,2013-08-24 07:53:00,
2013-08-24 01:02:00,55.0,52.0,30.02,West,276,0.0,0.0,89,0.00,,,0.01,,2013-08-24 08:02:00,
2013-08-24 01:12:00,55.0,52.0,30.02,West,276,0.0,0.0,89,0.00,,,0.01,,2013-08-24 08:12:00,
2013-08-24 01:22:00,55.0,52.0,30.02,West,276,0.0,0.0,89,0.00,,,0.01,,2013-08-24 08:22:00,
2013-08-24 01:42:00,56.0,53.0,30.02,West,276,0.0,0.0,91,0.00,,,0.01,,2013-08-24 08:42:00,
2013-08-24 01:52:00,56.0,53.0,30.02,West,276,0.0,0.0,91,0.00,,,0.01,,2013-08-24 08:52:00,
2013-08-24 02:11:00,55.0,52.0,30.02,West,276,0.0,0.0,91,0.00,,,0.01,,2013-08-24 09:11:00,
2013-08-24 02:22:00,55.0,52.0,30.02,West,276,0.0,0.0,91,0.00,,,0.01,,2013-08-24 09:22:00,
2013-08-24 02:44:00,55.0,52.0,30.02,West,276,0.0,0.0,91,0.00,,,0.01,,2013-08-24 09:44:00,
2013-08-24 02:53:00,55.0,52.0,30.02,West,276,0.0,0.0,91,0.00,,,0.01,,2013-08-24 09:53:00,
2013-08-24 03:13:00,54.0,52.0,30.01,West,276,0.0,0.0,92,0.00,,,0.01,,2013-08-24 10:13:00,
2013-08-24 03:23:00,54.0,52.0,30.01,West,276,0.0,0.0,92,0.00,,,0.01,,2013-08-24 10:23:00,
2013-08-24 03:32:00,54.0,52.0,30.01,West,276,0.0,0.0,92,0.00,,,0.01,,2013-08-24 10:32:00,
2013-08-24 03:42:00,54.0,52.0,30.01,West,276,0.0,0.0,92,0.00,,,0.01,,2013-08-24 10:42:00,
2013-08-24 03:53:00,54.0,52.0,30.01,West,276,0.0,0.0,92,0.00,,,0.01,,2013-08-24 10:53:00,
2013-08-24 04:12:00,54.0,52.0,30.01,West,276,0.0,0.0,92,0.00,,,0.00,,2013-08-24 11:12:00,
2013-08-24 04:22:00,54.0,52.0,30.01,West,276,0.0,0.0,92,0.00,,,0.00,,2013-08-24 11:22:00,
2013-08-24 04:42:00,54.0,52.0,30.01,West,276,0.0,0.0,92,0.00,,,0.00,,2013-08-24 11:42:00,
2013-08-24 04:52:00,54.0,52.0,30.01,West,276,0.0,0.0,92,0.00,,,0.00,,2013-08-24 11:52:00,
2013-08-24 05:12:00,54.0,52.0,30.00,West,276,0.0,0.0,92,0.00,,,0.00,,2013-08-24 12:12:00,
2013-08-24 05:21:00,54.0,52.0,30.00,West,276,0.0,0.0,92,0.00,,,0.00,,2013-08-24 12:21:00,
2013-08-24 05:42:00,54.0,52.0,30.00,West,276,0.0,0.0,92,0.00,,,0.00,,2013-08-24 12:42:00,
2013-08-24 05:52:00,54.0,52.0,30.00,West,276,0.0,0.0,92,0.00,,,0.00,,2013-08-24 12:52:00,
2013-08-24 06:11:00,54.0,52.0,30.00,West,276,0.0,0.0,93,0.00,,,0.00,,2013-08-24 13:11:00,
2013-08-24 06:22:00,54.0,52.0,30.00,West,276,0.0,0.0,93,0.00,,,0.00,,2013-08-24 13:22:00,
2013-08-24 06:52:00,54.0,52.0,30.00,West,276,0.0,0.0,93,0.00,,,0.00,,2013-08-24 13:52:00,
2013-08-24 07:02:00,54.0,52.0,30.00,West,276,0.0,0.0,93,0.00,,,0.00,,2013-08-24 14:02:00,
2013-08-24 07:11:00,54.0,52.0,30.00,West,276,0.0,0.0,93,0.00,,,0.00,,2013-08-24 14:11:00,
2013-08-24 07:21:00,54.0,52.0,30.00,West,276,0.0,0.0,93,0.00,,,0.00,,2013-08-24 14:21:00,
2013-08-24 07:52:00,55.0,53.0,29.99,West,276,0.0,0.0,93,0.00,,,0.00,,2013-08-24 14:52:00,
2013-08-24 08:11:00,55.0,53.0,30.00,West,276,0.0,0.0,94,0.00,,,0.00,,2013-08-24 15:11:00,
2013-08-24 08:21:00,55.0,53.0,30.00,West,276,0.0,0.0,94,0.00,,,0.00,,2013-08-24 15:21:00,
2013-08-24 08:54:00,56.0,54.0,30.00,West,276,0.0,0.0,94,0.00,,,0.00,,2013-08-24 15:54:00,
2013-08-24 09:13:00,58.0,56.0,30.00,West,276,0.0,0.0,94,0.00,,,0.00,,2013-08-24 16:13:00,
2013-08-24 09:23:00,58.0,56.0,30.00,West,276,0.0,0.0,94,0.00,,,0.00,,2013-08-24 16:23:00,
2013-08-24 09:53:00,61.0,58.0,30.00,West,276,0.0,0.0,90,0.00,,,0.00,,2013-08-24 16:53:00,
2013-08-24 10:12:00,63.0,58.0,29.99,West,277,0.0,0.0,84,0.00,,,0.00,,2013-08-24 17:12:00,
2013-08-24 10:23:00,63.0,58.0,29.99,West,277,0.0,0.0,84,0.00,,,0.00,,2013-08-24 17:23:00,
2013-08-24 10:42:00,65.0,59.0,30.00,WNW,286,0.0,0.0,80,0.00,,,0.00,,2013-08-24 17:42:00,
2013-08-24 10:52:00,65.0,59.0,30.00,WNW,286,0.0,0.0,80,0.00,,,0.00,,2013-08-24 17:52:00,
2013-08-24 11:13:00,67.0,61.0,30.00,NW,317,1.0,4.0,80,0.00,,,0.00,,2013-08-24 18:13:00,
2013-08-24 11:22:00,67.0,61.0,30.00,NW,317,1.0,4.0,80,0.00,,,0.00,,2013-08-24 18:22:00,
2013-08-24 11:53:00,67.0,60.0,30.00,North,4,0.0,3.0,77,0.00,,,0.00,,2013-08-24 18:53:00,
2013-08-24 12:12:00,69.0,60.0,30.00,East,80,1.0,4.0,73,0.00,,,0.00,,2013-08-24 19:12:00,
2013-08-24 12:21:00,69.0,60.0,30.00,East,80,1.0,4.0,73,0.00,,,0.00,,2013-08-24 19:21:00,
2013-08-24 12:52:00,69.0,60.0,30.00,ESE,118,2.0,5.0,73,0.00,,,0.00,,2013-08-24 19:52:00,
2013-08-24 13:11:00,73.0,62.0,29.99,SE,131,2.0,6.0,69,0.00,,,0.00,,2013-08-24 20:11:00,
2013-08-24 13:22:00,73.0,62.0,29.99,SE,131,2.0,6.0,69,0.00,,,0.00,,2013-08-24 20:22:00,
2013-08-24 13:52:00,70.0,60.0,29.99,East,96,1.0,4.0,71,0.00,,,0.00,,2013-08-24 20:52:00,
2013-08-24 14:11:00,70.0,61.0,29.99,ESE,105,1.0,4.0,72,0.00,,,0.00,,2013-08-24 21:11:00,
2013-08-24 14:22:00,70.0,61.0,29.99,ESE,105,1.0,4.0,72,0.00,,,0.00,,2013-08-24 21:22:00,
2013-08-24 14:43:00,70.0,60.0,29.99,South,169,2.0,3.0,71,0.00,,,0.00,,2013-08-24 21:43:00,
2013-08-24 14:55:00,70.0,60.0,29.99,South,169,2.0,3.0,71,0.00,,,0.00,,2013-08-24 21:55:00,
2013-08-24 15:14:00,72.0,60.0,29.98,SE,125,2.0,5.0,66,0.00,,,0.00,,2013-08-24 22:14:00,
2013-08-24 15:23:00,72.0,60.0,29.98,SE,125,2.0,5.0,66,0.00,,,0.00,,2013-08-24 22:23:00,
2013-08-24 15:53:00,73.0,60.0,29.98,North,4,2.0,4.0,63,0.00,,,0.00,,2013-08-24 22:53:00,
2013-08-24 16:12:00,74.0,60.0,29.97,NNE,15,1.0,4.0,61,0.00,,,0.00,,2013-08-24 23:12:00,
2013-08-24 16:22:00,74.0,60.0,29.97,NNE,15,1.0,4.0,61,0.00,,,0.00,,2013-08-24 23:22:00,
2013-08-24 16:43:00,74.0,59.0,29.97,ESE,111,1.0,5.0,60,0.00,,,0.00,,2013-08-24 23:43:00,
2013-08-24 16:53:00,74.0,59.0,29.97,ESE,111,1.0,5.0,60,0.00,,,0.00,,2013-08-24 23:53:00,
2013-08-24 17:11:00,73.0,59.0,29.96,ESE,116,2.0,5.0,61,0.00,,,0.00,,2013-08-25 00:11:00,
2013-08-24 17:22:00,73.0,59.0,29.96,ESE,116,2.0,5.0,61,0.00,,,0.00,,2013-08-25 00:22:00,
2013-08-24 17:42:00,71.0,58.0,29.96,SE,129,2.0,5.0,64,0.00,,,0.00,,2013-08-25 00:42:00,
2013-08-24 17:52:00,71.0,58.0,29.96,SE,129,2.0,5.0,64,0.00,,,0.00,,2013-08-25 00:52:00,
2013-08-24 18:11:00,69.0,58.0,29.96,SE,124,1.0,4.0,67,0.00,,,0.00,,2013-08-25 01:11:00,
2013-08-24 18:22:00,69.0,58.0,29.96,SE,124,1.0,4.0,67,0.00,,,0.00,,2013-08-25 01:22:00,
2013-08-24 18:42:00,68.0,57.0,29.96,SE,137,1.0,5.0,68,0.00,,,0.00,,2013-08-25 01:42:00,
2013-08-24 18:52:00,68.0,57.0,29.96,SE,137,1.0,5.0,68,0.00,,,0.00,,2013-08-25 01:52:00,
2013-08-24 19:22:00,67.0,58.0,29.97,SSE,149,2.0,3.0,72,0.00,,,0.00,,2013-08-25 02:22:00,
2013-08-24 19:33:00,67.0,58.0,29.97,SSE,149,2.0,3.0,72,0.00,,,0.00,,2013-08-25 02:33:00,
2013-08-24 19:42:00,67.0,58.0,29.97,SSE,149,2.0,3.0,72,0.00,,,0.00,,2013-08-25 02:42:00,
2013-08-24 19:52:00,67.0,58.0,29.97,SSE,149,2.0,3.0,72,0.00,,,0.00,,2013-08-25 02:52:00,
2013-08-24 20:11:00,66.0,57.0,29.98,NE,43,1.0,2.0,72,0.00,,,0.00,,2013-08-25 03:11:00,
2013-08-24 20:23:00,66.0,57.0,29.98,NE,43,1.0,2.0,72,0.00,,,0.00,,2013-08-25 03:23:00,
2013-08-24 20:44:00,65.0,57.0,29.98,NE,43,0.0,2.0,76,0.00,,,0.00,,2013-08-25 03:44:00,
2013-08-24 20:54:00,65.0,57.0,29.98,NE,43,0.0,2.0,76,0.00,,,0.00,,2013-08-25 03:54:00,
2013-08-24 21:02:00,-999.0,-99.9,29.99,NE,43,0.0,1.0,-999,-99.99,,,-99.99,,2013-08-25 04:02:00,
2013-08-24 21:14:00,64.0,58.0,29.99,NE,43,0.0,1.0,80,0.00,,,0.00,,2013-08-25 04:14:00,
2013-08-24 21:25:00,64.0,58.0,29.99,NE,43,0.0,1.0,80,0.00,,,0.00,,2013-08-25 04:25:00,
2013-08-24 21:44:00,63.0,57.0,29.99,NE,43,0.0,0.0,82,0.00,,,0.00,,2013-08-25 04:44:00,
2013-08-24 21:54:00,63.0,57.0,29.99,NE,43,0.0,0.0,82,0.00,,,0.00,,2013-08-25 04:54:00,
2013-08-24 22:12:00,61.0,56.0,30.00,NE,43,0.0,0.0,84,0.00,,,0.00,,2013-08-25 05:12:00,
2013-08-24 22:22:00,61.0,56.0,30.00,NE,43,0.0,0.0,84,0.00,,,0.00,,2013-08-25 05:22:00,
2013-08-24 22:52:00,60.0,55.0,30.00,NE,43,0.0,0.0,85,0.00,,,0.00,,2013-08-25 05:52:00,
2013-08-24 23:12:00,59.0,55.0,30.00,NE,43,0.0,0.0,86,0.00,,,0.00,,2013-08-25 06:12:00,
2013-08-24 23:22:00,59.0,55.0,30.00,NE,43,0.0,0.0,86,0.00,,,0.00,,2013-08-25 06:22:00,
2013-08-24 23:43:00,59.0,55.0,30.00,NE,43,0.0,0.0,87,0.00,,,0.00,,2013-08-25 06:43:00,
2013-08-24 23:52:00,59.0,55.0,30.00,NE,43,0.0,0.0,87,0.00,,,0.00,,2013-08-25 06:52:00,